Time;durP1;ratioP1;P1;durP2;ratioP2;P2;SDS_P1;SDS_P2;PMS_P1;PMS_P2;Temp;Humidity;BMP_temperature;BMP_pressure;BME280_temperature;BME280_humidity;BME280_pressure;Samples;Min_cycle;Max_cycle;Signal;HPM_P1;HPM_P2
2021/10/20 00:01:08;;;;;;;7.38;4.95;;;;;;;15.60;100.00;100971.63;5096068;28;20457;-58
2021/10/20 00:03:34;;;;;;;6.32;4.15;;;;;;;15.64;100.00;100978.19;5095814;28;20039;-59
2021/10/20 00:06:00;;;;;;;11.07;5.00;;;;;;;15.56;100.00;100965.84;5096053;28;20053;-59
2021/10/20 00:08:25;;;;;;;10.50;5.18;;;;;;;15.53;100.00;100963.59;5094322;28;20036;-59
2021/10/20 00:10:51;;;;;;;18.70;5.53;;;;;;;15.55;100.00;100957.97;5095727;28;20118;-59
2021/10/20 00:13:17;;;;;;;11.00;4.70;;;;;;;15.53;100.00;100957.38;5095396;28;20461;-58
2021/10/20 00:15:42;;;;;;;8.75;4.60;;;;;;;15.51;100.00;100951.41;5094264;28;20083;-58
2021/10/20 00:18:08;;;;;;;10.52;4.68;;;;;;;15.48;100.00;100952.69;5095508;28;20063;-57
2021/10/20 00:20:33;;;;;;;7.15;4.65;;;;;;;15.53;100.00;100947.44;5094598;28;20109;-58
2021/10/20 00:22:59;;;;;;;8.32;4.60;;;;;;;15.48;100.00;100960.78;5095067;28;20446;-59
2021/10/20 00:25:24;;;;;;;7.18;4.55;;;;;;;15.48;100.00;100944.59;5095492;28;20382;-59
2021/10/20 00:27:50;;;;;;;8.57;4.90;;;;;;;15.43;100.00;100933.66;5095398;28;20170;-59
2021/10/20 00:30:22;;;;;;;7.87;4.60;;;;;;;15.44;100.00;100930.75;5095922;28;20028;-58
2021/10/20 00:32:47;;;;;;;12.18;5.35;;;;;;;15.37;100.00;100937.25;5095289;28;20051;-58
2021/10/20 00:35:13;;;;;;;10.52;5.07;;;;;;;15.38;100.00;100915.50;5094239;28;20477;-58
2021/10/20 00:37:39;;;;;;;11.30;5.88;;;;;;;15.36;100.00;100914.06;5095636;28;20051;-58
2021/10/20 00:40:06;;;;;;;9.13;4.80;;;;;;;15.34;100.00;100909.72;5095329;28;20394;-59
2021/10/20 00:42:31;;;;;;;7.50;4.93;;;;;;;15.32;100.00;100905.59;5095831;28;20119;-58
2021/10/20 00:45:00;;;;;;;11.05;4.93;;;;;;;15.34;100.00;100904.31;5095193;28;20130;-60
2021/10/20 00:47:27;;;;;;;8.83;5.03;;;;;;;15.29;100.00;100909.56;5095151;28;20031;-58
2021/10/20 00:49:54;;;;;;;8.93;4.97;;;;;;;15.29;100.00;100901.50;5093923;28;20044;-59
2021/10/20 00:52:21;;;;;;;8.60;5.13;;;;;;;15.32;100.00;100903.72;5094627;28;20028;-59
2021/10/20 00:54:50;;;;;;;8.30;4.87;;;;;;;15.24;100.00;100890.56;5095011;28;20032;-59
2021/10/20 00:57:17;;;;;;;9.97;5.03;;;;;;;15.26;100.00;100899.25;5095311;28;20035;-59
2021/10/20 00:59:43;;;;;;;7.37;4.77;;;;;;;15.25;100.00;100900.31;5093923;28;20032;-59
2021/10/20 01:02:09;;;;;;;10.48;4.60;;;;;;;15.24;100.00;100906.75;5094917;28;20039;-59
2021/10/20 01:04:36;;;;;;;7.25;4.85;;;;;;;15.26;100.00;100896.56;5095128;28;20097;-60
2021/10/20 01:07:02;;;;;;;8.57;4.60;;;;;;;15.25;100.00;100886.84;5095132;28;20405;-59
2021/10/20 01:09:27;;;;;;;9.05;4.60;;;;;;;15.12;100.00;100873.50;5095031;28;20268;-59
2021/10/20 01:11:54;;;;;;;10.10;4.30;;;;;;;15.10;100.00;100873.72;5094958;28;20036;-59
2021/10/20 01:14:20;;;;;;;11.50;4.40;;;;;;;15.10;100.00;100876.41;5093917;28;20031;-59
2021/10/20 01:16:46;;;;;;;9.57;4.77;;;;;;;15.30;100.00;100870.81;5094527;28;20273;-58
2021/10/20 01:19:14;;;;;;;13.48;5.30;;;;;;;15.23;100.00;100872.75;5077016;28;20283;-59
2021/10/20 01:21:40;;;;;;;13.43;5.03;;;;;;;15.31;100.00;100866.22;5094452;28;20034;-59
2021/10/20 01:24:06;;;;;;;;;;;;;;;15.16;100.00;100861.22;5093984;28;20028;-59
2021/10/20 01:26:32;;;;;;;10.20;5.07;;;;;;;15.15;100.00;100851.50;5092835;28;19911;-58
2021/10/20 01:28:58;;;;;;;10.13;4.97;;;;;;;15.17;100.00;100865.56;5094015;28;20039;-59
2021/10/20 01:31:23;;;;;;;9.55;5.22;;;;;;;15.18;100.00;100861.81;5093141;28;20043;-58
2021/10/20 01:33:49;;;;;;;8.80;4.93;;;;;;;15.32;100.00;100841.75;5092460;28;20478;-58
2021/10/20 01:36:15;;;;;;;10.23;4.40;;;;;;;15.30;100.00;100854.63;5076918;28;20040;-59
2021/10/20 01:38:41;;;;;;;8.82;4.30;;;;;;;15.27;100.00;100844.31;5095003;28;20036;-58
2021/10/20 01:41:06;;;;;;;10.93;4.55;;;;;;;15.25;100.00;100841.03;5094627;28;20117;-59
2021/10/20 01:43:42;;;;;;;8.30;4.55;;;;;;;15.28;100.00;100834.34;5092910;28;20131;-59
2021/10/20 01:46:09;;;;;;;8.50;5.30;;;;;;;15.31;100.00;100841.97;5093530;28;20046;-59
2021/10/20 01:48:35;;;;;;;8.30;5.00;;;;;;;15.28;100.00;100829.81;5076107;28;20020;-58
2021/10/20 01:51:00;;;;;;;8.90;4.60;;;;;;;15.31;100.00;100823.94;5076084;28;20100;-59
2021/10/20 01:53:26;;;;;;;6.25;4.63;;;;;;;15.31;100.00;100825.81;5094654;28;20111;-59
2021/10/20 01:55:52;;;;;;;12.10;5.18;;;;;;;15.37;100.00;100826.78;5094115;28;20032;-59
2021/10/20 01:58:18;;;;;;;8.07;5.43;;;;;;;15.39;100.00;100813.91;5094153;28;20039;-59
2021/10/20 02:00:44;;;;;;;12.18;4.80;;;;;;;15.44;100.00;100824.81;5092767;28;20439;-59
2021/10/20 02:03:09;;;;;;;12.35;5.32;;;;;;;15.42;100.00;100811.59;5075932;28;20028;-59
2021/10/20 02:05:35;;;;;;;9.90;5.27;;;;;;;15.48;100.00;100817.94;5092719;28;20377;-60
2021/10/20 02:08:02;;;;;;;11.77;5.28;;;;;;;15.45;100.00;100812.97;5093742;28;20307;-59
2021/10/20 02:10:28;;;;;;;7.87;4.47;;;;;;;15.45;100.00;100815.66;5092826;28;20039;-59
2021/10/20 02:12:53;;;;;;;10.25;4.93;;;;;;;15.47;100.00;100805.50;5076072;28;20358;-59
2021/10/20 02:15:19;;;;;;;9.15;4.28;;;;;;;15.43;100.00;100809.69;5093621;28;20039;-59
2021/10/20 02:17:44;;;;;;;12.30;5.05;;;;;;;15.43;100.00;100815.91;5075716;28;20044;-58
2021/10/20 02:20:12;;;;;;;8.32;5.00;;;;;;;15.39;100.00;100811.22;5092636;28;20107;-58
2021/10/20 02:22:38;;;;;;;10.90;4.90;;;;;;;15.37;100.00;100799.84;5093933;28;20361;-57
2021/10/20 02:25:06;;;;;;;9.60;4.80;;;;;;;15.34;100.00;100796.56;5093479;28;20024;-58
2021/10/20 02:27:31;;;;;;;11.80;5.37;;;;;;;15.40;100.00;100789.44;5093479;28;20537;-58
2021/10/20 02:29:57;;;;;;;8.13;4.35;;;;;;;15.32;100.00;100785.19;5093367;28;20028;-58
2021/10/20 02:32:22;;;;;;;7.00;4.30;;;;;;;15.31;100.00;100780.84;5093905;28;20085;-58
2021/10/20 02:34:48;;;;;;;8.83;4.10;;;;;;;15.31;100.00;100780.00;5093466;28;20776;-59
2021/10/20 02:37:14;;;;;;;8.95;4.63;;;;;;;15.30;100.00;100779.19;5095814;28;20330;-59
2021/10/20 02:39:39;;;;;;;;;;;;;;;15.27;100.00;100776.97;5099268;28;20081;-58
2021/10/20 02:42:05;;;;;;;12.00;5.13;;;;;;;15.27;100.00;100774.28;5100325;28;20005;-59
2021/10/20 02:44:31;;;;;;;11.52;4.38;;;;;;;15.25;100.00;100765.59;5100650;28;20595;-59
2021/10/20 02:46:56;;;;;;;11.25;4.70;;;;;;;15.29;100.00;100764.09;5100551;28;20043;-59
2021/10/20 02:49:22;;;;;;;10.35;4.70;;;;;;;15.26;100.00;100755.63;5100430;28;20028;-59
2021/10/20 02:51:47;;;;;;;7.82;4.75;;;;;;;15.27;100.00;100763.50;5100683;28;20039;-59
2021/10/20 02:54:13;;;;;;;9.13;4.63;;;;;;;15.23;100.00;100762.31;5100268;28;20035;-59
2021/10/20 02:56:38;;;;;;;12.35;5.18;;;;;;;15.27;100.00;100766.19;5100248;28;20042;-58
2021/10/20 02:59:04;;;;;;;13.23;4.70;;;;;;;15.27;100.00;100757.28;5100521;28;20032;-59
2021/10/20 03:01:30;;;;;;;7.97;4.63;;;;;;;15.24;100.00;100753.19;5098735;28;20035;-59
2021/10/20 03:03:55;;;;;;;7.25;4.78;;;;;;;15.22;100.00;100752.56;5099831;28;20294;-59
2021/10/20 03:06:21;;;;;;;10.85;4.80;;;;;;;15.25;100.00;100744.06;5100187;28;20078;-59
2021/10/20 03:08:46;;;;;;;14.00;4.82;;;;;;;15.23;100.00;100743.47;5100280;28;20023;-59
2021/10/20 03:11:12;;;;;;;12.63;5.32;;;;;;;15.25;100.00;100741.34;5098891;28;20031;-59
2021/10/20 03:13:38;;;;;;;10.73;4.75;;;;;;;15.26;100.00;100739.47;5098734;28;20454;-60
2021/10/20 03:16:04;;;;;;;8.15;4.82;;;;;;;15.21;100.00;100740.16;5081676;28;20043;-59
2021/10/20 03:18:29;;;;;;;11.63;5.38;;;;;;;15.22;100.00;100720.25;5099692;28;20032;-61
2021/10/20 03:20:54;;;;;;;13.80;5.30;;;;;;;15.19;100.00;100718.84;5099552;28;20416;-60
2021/10/20 03:23:20;;;;;;;9.03;5.30;;;;;;;15.20;100.00;100725.88;5099863;28;20355;-59
2021/10/20 03:25:45;;;;;;;11.02;5.18;;;;;;;15.22;100.00;100725.63;5099642;28;20107;-59
2021/10/20 03:28:11;;;;;;;13.83;5.40;;;;;;;15.18;100.00;100725.28;5099000;28;20024;-59
2021/10/20 03:30:36;;;;;;;9.40;5.60;;;;;;;15.23;100.00;100724.59;5099924;28;20355;-59
2021/10/20 03:33:02;;;;;;;10.80;4.93;;;;;;;15.27;100.00;100736.56;5098575;28;20036;-59
2021/10/20 03:35:28;;;;;;;12.50;5.87;;;;;;;15.22;100.00;100717.53;5099818;28;20504;-59
2021/10/20 03:37:53;;;;;;;10.20;5.68;;;;;;;15.22;100.00;100722.13;5098332;28;20027;-58
2021/10/20 03:40:19;;;;;;;10.52;5.63;;;;;;;15.23;100.00;100715.69;5098122;28;20051;-59
2021/10/20 03:42:44;;;;;;;12.88;5.60;;;;;;;15.24;100.00;100717.31;5099692;28;20060;-58
2021/10/20 03:45:11;;;;;;;12.70;5.57;;;;;;;15.25;100.00;100714.41;5099560;28;20054;-58
2021/10/20 03:47:37;;;;;;;14.25;5.78;;;;;;;15.24;100.00;100715.47;5099455;28;20038;-59
2021/10/20 03:50:04;;;;;;;11.18;5.57;;;;;;;15.26;100.00;100724.13;5095766;28;20036;-58
2021/10/20 03:52:29;;;;;;;11.33;5.87;;;;;;;15.28;100.00;100723.91;5094945;28;20032;-59
2021/10/20 03:54:55;;;;;;;10.23;5.30;;;;;;;15.26;100.00;100723.31;5097051;28;20310;-58
2021/10/20 03:57:20;;;;;;;9.65;5.78;;;;;;;15.27;100.00;100714.16;5095228;28;20067;-59
2021/10/20 03:59:46;;;;;;;9.60;6.32;;;;;;;15.25;100.00;100725.19;5096347;28;20036;-58
2021/10/20 04:02:13;;;;;;;9.73;6.03;;;;;;;15.23;100.00;100703.06;5096601;28;20420;-59
2021/10/20 04:04:39;;;;;;;15.27;6.13;;;;;;;15.27;100.00;100690.75;5096352;28;20047;-59
2021/10/20 04:07:05;;;;;;;10.90;5.65;;;;;;;15.20;100.00;100688.16;5096381;28;20588;-59
2021/10/20 04:09:30;;;;;;;8.63;5.65;;;;;;;15.22;100.00;100685.22;5096260;28;20461;-59
2021/10/20 04:11:56;;;;;;;10.88;5.13;;;;;;;15.23;100.00;100668.03;5096172;28;20164;-59
2021/10/20 04:14:22;;;;;;;10.98;5.45;;;;;;;15.22;100.00;100671.75;5077940;28;20470;-59
2021/10/20 04:16:47;;;;;;;10.45;5.80;;;;;;;15.23;100.00;100668.03;5096030;28;20047;-56
2021/10/20 04:19:13;;;;;;;10.32;5.78;;;;;;;15.24;100.00;100666.97;5094584;28;20123;-59
2021/10/20 04:21:38;;;;;;;10.02;5.72;;;;;;;15.20;100.00;100655.00;5094456;28;20040;-59
2021/10/20 04:24:04;;;;;;;19.10;6.13;;;;;;;15.20;100.00;100660.38;5094438;28;20070;-59
2021/10/20 04:26:30;;;;;;;12.88;5.70;;;;;;;15.25;100.00;100654.31;5095783;28;20344;-59
2021/10/20 04:28:55;;;;;;;10.50;6.05;;;;;;;15.26;100.00;100656.78;5096136;28;20107;-59
2021/10/20 04:31:21;;;;;;;12.02;7.00;;;;;;;15.22;100.00;100652.88;5095326;28;20457;-59
2021/10/20 04:33:46;;;;;;;15.60;7.18;;;;;;;15.25;100.00;100644.38;5094692;28;20465;-59
2021/10/20 04:36:12;;;;;;;12.02;6.85;;;;;;;15.25;100.00;100643.53;5095615;28;20492;-59
2021/10/20 04:38:37;;;;;;;10.65;6.13;;;;;;;15.25;100.00;100638.16;5095341;28;20058;-59
2021/10/20 04:41:03;;;;;;;11.93;5.85;;;;;;;15.30;100.00;100646.34;5093884;28;20177;-59
2021/10/20 04:43:29;;;;;;;13.20;7.38;;;;;;;15.33;100.00;100644.03;5094544;28;20044;-59
2021/10/20 04:45:54;;;;;;;9.73;5.80;;;;;;;15.41;100.00;100617.78;5094333;28;20039;-58
2021/10/20 04:48:21;;;;;;;10.13;6.28;;;;;;;15.43;100.00;100603.03;5095465;28;20028;-59
2021/10/20 04:50:46;;;;;;;9.70;6.43;;;;;;;15.49;100.00;100598.59;5077126;28;20032;-59
2021/10/20 04:53:12;;;;;;;18.00;6.80;;;;;;;15.58;100.00;100618.75;5093754;28;20376;-59
2021/10/20 04:55:39;;;;;;;14.05;8.02;;;;;;;15.67;100.00;100594.94;5095833;28;20098;-59
2021/10/20 04:58:08;;;;;;;16.87;9.57;;;;;;;15.68;100.00;100582.28;5095220;28;20036;-58
2021/10/20 05:00:35;;;;;;;13.40;8.90;;;;;;;15.77;100.00;100592.47;5095355;28;20024;-59
2021/10/20 05:03:01;;;;;;;10.83;6.43;;;;;;;15.75;100.00;100596.47;5094824;28;20107;-59
2021/10/20 05:05:28;;;;;;;13.55;6.32;;;;;;;15.70;100.00;100586.38;5095017;28;20361;-59
2021/10/20 05:07:54;;;;;;;;;;;;;;;15.58;100.00;100591.78;5095238;28;20539;-59
2021/10/20 05:10:22;;;;;;;17.53;7.33;;;;;;;15.57;100.00;100598.22;5094663;28;19904;-60
2021/10/20 05:12:48;;;;;;;12.13;6.57;;;;;;;15.53;100.00;100588.97;5094385;28;20462;-59
2021/10/20 05:15:14;;;;;;;;;;;;;;;15.55;100.00;100586.03;5094856;28;20020;-57
2021/10/20 05:17:40;;;;;;;17.00;7.27;;;;;;;15.59;100.00;100598.81;5093427;28;19934;-60
2021/10/20 05:20:07;;;;;;;23.38;7.35;;;;;;;15.51;100.00;100577.63;5094281;28;20035;-58
2021/10/20 05:22:35;;;;;;;13.83;6.43;;;;;;;15.50;100.00;100573.28;5092785;28;20042;-61
2021/10/20 05:25:00;;;;;;;12.27;6.47;;;;;;;15.46;100.00;100570.22;5094124;28;20039;-59
2021/10/20 05:27:26;;;;;;;10.40;6.32;;;;;;;15.46;100.00;100572.13;5092651;28;20039;-59
2021/10/20 05:29:52;;;;;;;9.00;5.97;;;;;;;15.47;100.00;100582.66;5094268;28;20027;-59
2021/10/20 05:32:17;;;;;;;11.63;6.43;;;;;;;15.40;100.00;100567.66;5093056;28;20055;-58
2021/10/20 05:34:43;;;;;;;11.13;6.32;;;;;;;15.41;100.00;100585.44;5094214;28;20032;-59
2021/10/20 05:37:08;;;;;;;10.20;5.90;;;;;;;15.34;100.00;100580.19;5093830;28;20051;-59
2021/10/20 05:39:34;;;;;;;11.40;6.53;;;;;;;15.33;100.00;100589.31;5092660;28;20048;-59
2021/10/20 05:41:59;;;;;;;10.32;5.97;;;;;;;15.34;100.00;100570.22;5094457;28;20114;-58
2021/10/20 05:44:25;;;;;;;12.10;6.40;;;;;;;15.34;100.00;100572.13;5094311;28;20051;-59
2021/10/20 05:46:50;;;;;;;15.17;6.87;;;;;;;15.37;100.00;100566.25;5076625;28;20101;-59
2021/10/20 05:49:16;;;;;;;11.30;5.80;;;;;;;15.34;100.00;100543.28;5093901;28;20047;-60
2021/10/20 05:51:42;;;;;;;10.75;6.35;;;;;;;15.33;100.00;100544.34;5094661;28;20028;-60
2021/10/20 05:54:07;;;;;;;12.65;5.85;;;;;;;15.40;100.00;100535.31;5093740;28;20513;-59
2021/10/20 05:56:33;;;;;;;9.43;5.63;;;;;;;15.47;100.00;100552.19;5094512;28;20028;-60
2021/10/20 05:58:58;;;;;;;11.75;5.80;;;;;;;15.48;100.00;100529.59;5093271;28;20123;-57
2021/10/20 06:01:24;;;;;;;12.35;6.22;;;;;;;15.51;100.00;100531.81;5092745;28;20039;-59
2021/10/20 06:03:50;;;;;;;9.02;5.38;;;;;;;15.51;100.00;100530.97;5093711;28;20040;-58
2021/10/20 06:06:15;;;;;;;9.90;6.05;;;;;;;15.54;100.00;100533.19;5093481;28;20123;-59
2021/10/20 06:08:41;;;;;;;11.13;5.90;;;;;;;15.54;100.00;100523.25;5093705;28;20032;-59
2021/10/20 06:11:06;;;;;;;10.65;5.50;;;;;;;15.58;100.00;100515.50;5093888;28;20089;-57
2021/10/20 06:13:32;;;;;;;11.18;5.63;;;;;;;15.57;100.00;100524.63;5092856;28;20092;-58
2021/10/20 06:15:58;;;;;;;10.68;6.28;;;;;;;15.55;100.00;100529.44;5093638;28;20036;-58
2021/10/20 06:18:23;;;;;;;14.50;6.28;;;;;;;15.53;100.00;100536.94;5093593;28;20036;-59
2021/10/20 06:20:49;;;;;;;12.13;6.18;;;;;;;15.51;100.00;100537.19;5092654;28;20036;-59
2021/10/20 06:23:14;;;;;;;12.52;5.57;;;;;;;15.48;100.00;100516.91;5093235;28;20480;-59
2021/10/20 06:25:40;;;;;;;12.52;6.25;;;;;;;15.48;100.00;100508.03;5093475;28;20032;-59
2021/10/20 06:28:05;;;;;;;11.43;5.93;;;;;;;15.50;100.00;100503.22;5092298;28;20047;-59
2021/10/20 06:30:31;;;;;;;11.63;5.97;;;;;;;15.44;100.00;100480.72;5093575;28;20256;-58
2021/10/20 06:32:56;;;;;;;14.73;5.93;;;;;;;15.52;100.00;100484.09;5092051;28;20078;-59
2021/10/20 06:35:22;;;;;;;10.82;6.05;;;;;;;15.56;100.00;100472.63;5093075;28;20102;-58
2021/10/20 06:37:51;;;;;;;9.88;5.90;;;;;;;15.53;100.00;100486.56;5093443;28;20470;-59
2021/10/20 06:40:17;;;;;;;12.43;5.63;;;;;;;15.53;100.00;100483.88;5092445;28;20040;-59
2021/10/20 06:42:42;;;;;;;12.20;5.70;;;;;;;15.53;100.00;100497.34;5093220;28;20093;-59
2021/10/20 06:45:08;;;;;;;9.98;6.47;;;;;;;15.52;100.00;100484.94;5093355;28;20040;-58
2021/10/20 06:47:34;;;;;;;16.63;5.55;;;;;;;15.56;100.00;100501.44;5075303;28;20039;-58
2021/10/20 06:49:59;;;;;;;11.15;5.82;;;;;;;15.57;100.00;100513.84;5093012;28;20354;-59
2021/10/20 06:52:25;;;;;;;16.08;6.40;;;;;;;15.58;100.00;100526.28;5093237;28;20032;-59
2021/10/20 06:54:51;;;;;;;11.98;6.72;;;;;;;15.61;100.00;100537.41;5093208;28;20074;-59
2021/10/20 06:57:17;;;;;;;11.13;6.18;;;;;;;15.55;100.00;100521.34;5092415;28;20410;-59
2021/10/20 06:59:43;;;;;;;18.88;7.10;;;;;;;15.59;100.00;100523.34;5093192;28;20419;-59
2021/10/20 07:02:09;;;;;;;13.48;6.32;;;;;;;15.57;100.00;100525.47;5092073;28;20036;-58
2021/10/20 07:04:35;;;;;;;17.00;7.53;;;;;;;15.52;100.00;100511.88;5093331;28;20032;-59
2021/10/20 07:07:00;;;;;;;11.68;6.80;;;;;;;15.50;100.00;100514.00;5093417;28;20059;-59
2021/10/20 07:09:26;;;;;;;11.97;6.57;;;;;;;15.46;100.00;100493.97;5092715;28;20032;-59
2021/10/20 07:11:52;;;;;;;13.25;7.45;;;;;;;15.30;100.00;100507.09;5092701;28;20629;-59
2021/10/20 07:14:17;;;;;;;11.63;7.03;;;;;;;15.32;100.00;100510.38;5092946;28;20118;-59
2021/10/20 07:16:43;;;;;;;10.73;6.80;;;;;;;15.41;100.00;100474.97;5092750;28;20403;-59
2021/10/20 07:19:09;;;;;;;17.25;8.48;;;;;;;15.39;100.00;100487.88;5091642;28;20465;-59
2021/10/20 07:21:35;;;;;;;15.07;6.88;;;;;;;15.32;100.00;100466.44;5092955;28;20040;-59
2021/10/20 07:24:02;;;;;;;18.17;6.90;;;;;;;15.26;100.00;100441.28;5093438;28;20032;-59
2021/10/20 07:26:27;;;;;;;14.03;7.40;;;;;;;15.30;100.00;100428.97;5095395;28;20019;-59
2021/10/20 07:28:53;;;;;;;13.02;7.45;;;;;;;15.26;100.00;100410.81;5078466;28;20272;-61
2021/10/20 07:31:18;;;;;;;11.10;7.30;;;;;;;15.26;100.00;100411.66;5094882;28;20457;-60
2021/10/20 07:33:44;;;;;;;15.50;7.20;;;;;;;15.29;100.00;100427.34;5096991;28;20281;-60
2021/10/20 07:36:10;;;;;;;16.65;7.45;;;;;;;15.33;100.00;100415.03;5096554;28;20377;-59
2021/10/20 07:38:36;;;;;;;18.40;7.35;;;;;;;15.36;100.00;100385.97;5096159;28;20036;-60
2021/10/20 07:41:02;;;;;;;17.65;7.68;;;;;;;15.32;100.00;100399.91;5078315;28;20052;-59
2021/10/20 07:43:29;;;;;;;18.50;8.30;;;;;;;15.32;100.00;100378.38;5096538;28;20055;-59
2021/10/20 07:45:54;;;;;;;14.33;7.57;;;;;;;15.29;100.00;100392.31;5096345;28;20454;-59
2021/10/20 07:48:20;;;;;;;19.35;7.85;;;;;;;15.13;100.00;100393.03;5095896;28;20031;-59
2021/10/20 07:50:45;;;;;;;16.50;9.27;;;;;;;15.11;100.00;100381.69;5096219;28;20040;-60
2021/10/20 07:53:11;;;;;;;19.27;9.10;;;;;;;15.04;100.00;100369.19;5096033;28;20633;-61
2021/10/20 07:55:36;;;;;;;18.52;8.68;;;;;;;14.99;100.00;100360.16;5095964;28;20031;-58
2021/10/20 07:58:02;;;;;;;16.30;10.40;;;;;;;14.94;100.00;100351.97;5096049;28;20028;-59
2021/10/20 08:00:28;;;;;;;15.40;8.63;;;;;;;14.98;100.00;100353.94;5096606;28;20032;-58
2021/10/20 08:02:55;;;;;;;16.30;10.63;;;;;;;15.06;100.00;100368.94;5096106;28;20032;-58
2021/10/20 08:05:21;;;;;;;;;;;;;;;15.04;100.00;100369.19;5096170;28;20039;-57
2021/10/20 08:07:47;;;;;;;15.27;9.60;;;;;;;15.11;100.00;100363.66;5095589;28;19926;-58
2021/10/20 08:10:14;;;;;;;18.45;9.70;;;;;;;15.12;100.00;100368.00;5095806;28;20297;-58
2021/10/20 08:12:41;;;;;;;17.27;10.70;;;;;;;15.13;100.00;100374.19;5095830;28;20056;-58
2021/10/20 08:15:08;;;;;;;16.27;10.80;;;;;;;15.22;100.00;100359.28;5095446;28;20289;-58
2021/10/20 08:17:33;;;;;;;17.23;10.60;;;;;;;15.29;100.00;100362.69;5094627;28;20024;-58
2021/10/20 08:19:59;;;;;;;19.20;9.55;;;;;;;15.30;100.00;100348.16;5095747;28;20515;-57
2021/10/20 08:22:24;;;;;;;16.70;10.93;;;;;;;15.34;100.00;100332.34;5094979;28;20024;-58
2021/10/20 08:24:50;;;;;;;13.57;8.75;;;;;;;15.32;100.00;100335.25;5094526;28;20036;-59
2021/10/20 08:27:15;;;;;;;15.80;8.73;;;;;;;15.39;100.00;100337.81;5095335;28;20040;-59
2021/10/20 08:29:41;;;;;;;14.65;9.13;;;;;;;15.40;100.00;100330.53;5094504;28;20717;-57
2021/10/20 08:32:08;;;;;;;13.55;7.97;;;;;;;15.46;100.00;100335.78;5095385;28;20119;-58
2021/10/20 08:34:34;;;;;;;15.23;9.50;;;;;;;15.61;100.00;100348.72;5093730;28;20370;-58
2021/10/20 08:37:00;;;;;;;21.40;9.30;;;;;;;15.87;100.00;100324.13;5095318;28;20028;-58
2021/10/20 08:39:26;;;;;;;13.70;8.52;;;;;;;16.19;100.00;100348.69;5094055;28;20036;-55
2021/10/20 08:41:54;;;;;;;14.10;8.63;;;;;;;16.58;100.00;100336.31;5094758;28;20384;-58
2021/10/20 08:44:22;;;;;;;12.00;7.80;;;;;;;16.29;100.00;100358.00;5095555;28;20031;-59
2021/10/20 08:46:49;;;;;;;13.50;8.23;;;;;;;16.05;100.00;100363.56;5095896;28;20051;-59
2021/10/20 08:49:17;;;;;;;19.37;9.77;;;;;;;15.98;100.00;100361.00;5095159;28;20040;-58
2021/10/20 08:51:44;;;;;;;16.13;10.20;;;;;;;15.97;100.00;100385.53;5094301;28;20468;-59
2021/10/20 08:54:09;;;;;;;27.60;11.27;;;;;;;15.97;100.00;100367.47;5095060;28;20035;-60
2021/10/20 08:56:36;;;;;;;16.80;9.77;;;;;;;15.88;100.00;100361.63;5093612;28;20040;-59
2021/10/20 08:59:02;;;;;;;24.48;12.90;;;;;;;15.97;100.00;100374.75;5095783;28;20039;-59
2021/10/20 09:01:28;;;;;;;20.13;12.32;;;;;;;15.97;100.00;100362.06;5094965;28;20438;-60
2021/10/20 09:03:54;;;;;;;16.33;11.50;;;;;;;16.03;100.00;100365.69;5093590;28;20093;-59
2021/10/20 09:06:19;;;;;;;17.55;11.75;;;;;;;16.14;100.00;100356.69;5094296;28;20024;-59
2021/10/20 09:08:46;;;;;;;18.23;10.80;;;;;;;16.25;100.00;100359.56;5093460;28;20115;-58
2021/10/20 09:11:33;;;;;;;14.77;9.87;;;;;;;16.41;100.00;100334.47;5093829;28;20042;-58
2021/10/20 09:14:19;;;;;;;17.33;9.50;;;;;;;16.47;100.00;100338.03;5095083;28;20040;-60
2021/10/20 09:16:45;;;;;;;12.17;8.97;;;;;;;16.64;100.00;100346.13;5093591;28;20043;-60
2021/10/20 09:19:31;;;;;;;15.57;9.57;;;;;;;16.89;100.00;100334.03;5093196;28;20253;-58
2021/10/20 09:21:58;;;;;;;16.20;8.73;;;;;;;17.12;100.00;100326.78;5094387;28;20094;-60
2021/10/20 09:24:27;;;;;;;11.77;8.57;;;;;;;17.20;100.00;100323.63;5094245;28;20023;-58
2021/10/20 09:26:57;;;;;;;13.87;8.60;;;;;;;17.37;100.00;100341.66;5094894;28;20063;-60
2021/10/20 09:29:23;;;;;;;16.47;8.30;;;;;;;17.65;100.00;100334.38;5093102;28;20059;-58
2021/10/20 09:31:49;;;;;;;12.40;7.23;;;;;;;17.71;100.00;100334.19;5094256;28;20093;-62
2021/10/20 09:34:15;;;;;;;11.63;7.83;;;;;;;18.01;100.00;100313.09;5076134;28;20024;-59
2021/10/20 09:36:41;;;;;;;15.40;8.73;;;;;;;17.95;100.00;100312.22;5093963;28;20387;-59
2021/10/20 09:39:09;;;;;;;11.80;7.80;;;;;;;17.86;100.00;100314.56;5094196;28;20032;-58
2021/10/20 09:41:35;;;;;;;14.20;7.77;;;;;;;18.18;100.00;100313.78;5094728;28;20072;-60
2021/10/20 09:44:00;;;;;;;14.77;7.75;;;;;;;18.50;100.00;100306.69;5093671;28;20075;-60
2021/10/20 09:46:35;;;;;;;11.52;7.75;;;;;;;18.88;100.00;100287.63;5092081;28;20459;-60
2021/10/20 09:49:12;;;;;;;11.57;6.73;;;;;;;18.76;100.00;100318.47;5092348;28;20039;-59
2021/10/20 09:51:38;;;;;;;13.93;6.73;;;;;;;18.80;100.00;100301.69;5094241;28;20040;-59
2021/10/20 09:54:28;;;;;;;13.52;6.80;;;;;;;18.43;100.00;100290.66;5076462;28;20077;-60
2021/10/20 09:56:58;;;;;;;14.20;6.60;;;;;;;18.24;100.00;100314.63;5093542;28;20050;-59
2021/10/20 09:59:25;;;;;;;12.53;7.70;;;;;;;18.16;100.00;100290.78;5092271;28;20032;-59
2021/10/20 10:01:51;;;;;;;14.47;6.80;;;;;;;17.84;100.00;100289.69;5093547;28;20412;-60
2021/10/20 10:04:19;;;;;;;13.75;7.85;;;;;;;17.76;100.00;100299.06;5093692;28;20032;-60
2021/10/20 10:06:46;;;;;;;14.83;7.57;;;;;;;17.58;100.00;100311.09;5092325;28;20024;-60
2021/10/20 10:09:12;;;;;;;10.77;6.83;;;;;;;17.47;100.00;100296.66;5093873;28;20380;-60
2021/10/20 10:11:42;;;;;;;12.48;7.32;;;;;;;17.36;100.00;100313.00;5093549;28;20046;-59
2021/10/20 10:14:08;;;;;;;11.50;6.87;;;;;;;17.34;100.00;100316.78;5093511;28;20024;-60
2021/10/20 10:16:37;;;;;;;12.20;7.18;;;;;;;17.43;100.00;100300.94;5093818;28;20024;-59
2021/10/20 10:19:04;;;;;;;12.70;8.27;;;;;;;17.34;100.00;100297.88;5093403;28;20515;-59
2021/10/20 10:21:37;;;;;;;15.00;7.32;;;;;;;17.43;100.00;100295.53;5093956;28;20077;-58
2021/10/20 10:24:08;;;;;;;12.00;6.97;;;;;;;17.34;100.00;100300.56;5093730;28;20047;-60
2021/10/20 10:26:58;;;;;;;9.87;6.40;;;;;;;17.33;100.00;100296.25;5092428;28;20369;-59
2021/10/20 10:29:23;;;;;;;12.70;7.30;;;;;;;17.38;100.00;100290.06;5092071;28;20032;-59
2021/10/20 10:31:51;;;;;;;12.93;7.20;;;;;;;17.39;100.00;100293.59;5093231;28;20032;-58
2021/10/20 10:34:35;;;;;;;13.80;7.70;;;;;;;17.48;100.00;100305.56;5092325;28;20135;-59
2021/10/20 10:37:00;;;;;;;11.27;6.80;;;;;;;17.52;100.00;100295.88;5093446;28;20027;-60
2021/10/20 10:39:33;;;;;;;12.20;6.45;;;;;;;17.45;100.00;100281.75;5093121;28;20118;-60
2021/10/20 10:42:05;;;;;;;10.67;7.03;;;;;;;17.48;100.00;100292.88;5093413;28;20062;-59
2021/10/20 10:44:51;;;;;;;12.13;6.73;;;;;;;17.61;100.00;100288.09;5092989;28;20090;-59
2021/10/20 10:47:28;;;;;;;9.83;5.83;;;;;;;17.76;100.00;100260.38;5092286;28;20070;-59
2021/10/20 10:49:57;;;;;;;9.83;6.20;;;;;;;17.95;100.00;100265.41;5093505;28;20408;-59
2021/10/20 10:52:33;;;;;;;11.70;5.80;;;;;;;17.87;100.00;100275.63;5092042;28;20338;-60
2021/10/20 10:55:10;;;;;;;13.33;6.10;;;;;;;18.05;100.00;100279.06;5093157;28;20040;-60
2021/10/20 10:57:54;;;;;;;9.13;6.20;;;;;;;18.10;100.00;100273.69;5093120;28;20028;-61
2021/10/20 11:00:19;;;;;;;10.90;5.93;;;;;;;18.22;100.00;100259.94;5095807;28;20067;-60
2021/10/20 11:02:51;;;;;;;9.32;5.95;;;;;;;18.28;100.00;100261.59;5097000;28;20062;-59
2021/10/20 11:05:32;;;;;;;8.97;6.10;;;;;;;18.29;100.00;100270.56;5096570;28;20040;-60
2021/10/20 11:08:06;;;;;;;15.07;6.00;;;;;;;18.19;100.00;100265.88;5096280;28;20115;-60
2021/10/20 11:10:34;;;;;;;16.20;6.13;;;;;;;18.17;100.00;100266.13;5095615;28;20032;-59